sensor_id;sensor_type;location;lat;lon;timestamp;pressure;altitude;pressure_sealevel;temperature;humidity
17635;BME280;8936;49.010;12.120;2022-08-19T00:00:17;97172.53;;;28.24;100.00
17635;BME280;8936;49.010;12.120;2022-08-19T00:02:44;97159.97;;;28.02;100.00
17635;BME280;8936;49.010;12.120;2022-08-19T00:05:13;97164.69;;;28.16;100.00
17635;BME280;8936;49.010;12.120;2022-08-19T00:07:40;97168.19;;;28.20;100.00
17635;BME280;8936;49.010;12.120;2022-08-19T00:10:09;97172.88;;;28.30;100.00
17635;BME280;8936;49.010;12.120;2022-08-19T00:12:35;97169.72;;;28.38;100.00
17635;BME280;8936;49.010;12.120;2022-08-19T00:15:03;97177.16;;;28.45;100.00
17635;BME280;8936;49.010;12.120;2022-08-19T00:17:29;97185.41;;;28.41;100.00
17635;BME280;8936;49.010;12.120;2022-08-19T00:19:56;97188.19;;;28.27;100.00
17635;BME280;8936;49.010;12.120;2022-08-19T00:22:23;97194.44;;;28.42;100.00
17635;BME280;8936;49.010;12.120;2022-08-19T00:24:52;97202.66;;;28.42;100.00
17635;BME280;8936;49.010;12.120;2022-08-19T00:27:18;97202.69;;;28.38;100.00
17635;BME280;8936;49.010;12.120;2022-08-19T00:29:44;97203.09;;;27.95;100.00
17635;BME280;8936;49.010;12.120;2022-08-19T00:32:11;97208.63;;;28.12;100.00
17635;BME280;8936;49.010;12.120;2022-08-19T00:34:37;97207.84;;;28.19;100.00
17635;BME280;8936;49.010;12.120;2022-08-19T00:37:03;97216.44;;;28.28;100.00
17635;BME280;8936;49.010;12.120;2022-08-19T00:39:31;97224.28;;;28.33;100.00
17635;BME280;8936;49.010;12.120;2022-08-19T00:41:58;97218.41;;;28.24;100.00
17635;BME280;8936;49.010;12.120;2022-08-19T00:44:25;97224.69;;;28.21;100.00
17635;BME280;8936;49.010;12.120;2022-08-19T00:46:52;97216.44;;;28.28;100.00
17635;BME280;8936;49.010;12.120;2022-08-19T00:49:20;97235.25;;;28.33;100.00
17635;BME280;8936;49.010;12.120;2022-08-19T00:51:50;97225.84;;;28.27;100.00
17635;BME280;8936;49.010;12.120;2022-08-19T00:54:18;97224.31;;;28.22;100.00
17635;BME280;8936;49.010;12.120;2022-08-19T00:56:46;97224.69;;;28.24;100.00
17635;BME280;8936;49.010;12.120;2022-08-19T00:59:13;97219.59;;;28.19;100.00
17635;BME280;8936;49.010;12.120;2022-08-19T01:01:40;97214.50;;;28.21;100.00
17635;BME280;8936;49.010;12.120;2022-08-19T01:04:07;97228.22;;;28.14;100.00
17635;BME280;8936;49.010;12.120;2022-08-19T01:06:34;97238.81;;;28.19;100.00
17635;BME280;8936;49.010;12.120;2022-08-19T01:09:02;97250.19;;;28.21;100.00
17635;BME280;8936;49.010;12.120;2022-08-19T01:11:28;97243.91;;;28.17;100.00
17635;BME280;8936;49.010;12.120;2022-08-19T01:13:57;97254.50;;;28.12;100.00
17635;BME280;8936;49.010;12.120;2022-08-19T01:16:25;97265.50;;;28.19;100.00
17635;BME280;8936;49.010;12.120;2022-08-19T01:18:53;97270.97;;;28.12;100.00
17635;BME280;8936;49.010;12.120;2022-08-19T01:21:20;97266.66;;;28.11;100.00
17635;BME280;8936;49.010;12.120;2022-08-19T01:23:49;97261.53;;;28.16;100.00
17635;BME280;8936;49.010;12.120;2022-08-19T01:26:17;97253.31;;;28.16;100.00
17635;BME280;8936;49.010;12.120;2022-08-19T01:28:44;97243.88;;;27.85;100.00
17635;BME280;8936;49.010;12.120;2022-08-19T01:31:13;97248.97;;;27.80;100.00
17635;BME280;8936;49.010;12.120;2022-08-19T01:33:40;97248.59;;;27.74;100.00
17635;BME280;8936;49.010;12.120;2022-08-19T01:36:07;97248.59;;;27.67;100.00
17635;BME280;8936;49.010;12.120;2022-08-19T01:38:35;97249.75;;;27.77;100.00
17635;BME280;8936;49.010;12.120;2022-08-19T01:41:03;97259.19;;;27.94;100.00
17635;BME280;8936;49.010;12.120;2022-08-19T01:43:30;97243.91;;;28.00;100.00
17635;BME280;8936;49.010;12.120;2022-08-19T01:45:56;97258.81;;;28.09;100.00
17635;BME280;8936;49.010;12.120;2022-08-19T01:48:23;97253.34;;;28.06;100.00
17635;BME280;8936;49.010;12.120;2022-08-19T01:50:49;97245.47;;;27.90;100.00
17635;BME280;8936;49.010;12.120;2022-08-19T01:53:15;97241.94;;;27.79;100.00
17635;BME280;8936;49.010;12.120;2022-08-19T01:55:42;97221.47;;;27.20;100.00
17635;BME280;8936;49.010;12.120;2022-08-19T01:58:11;97221.91;;;26.43;100.00
17635;BME280;8936;49.010;12.120;2022-08-19T02:00:38;97214.34;;;26.25;100.00
17635;BME280;8936;49.010;12.120;2022-08-19T02:03:05;97226.50;;;26.28;100.00
17635;BME280;8936;49.010;12.120;2022-08-19T02:05:31;97238.16;;;26.87;100.00
17635;BME280;8936;49.010;12.120;2022-08-19T02:07:58;97251.59;;;27.13;100.00
17635;BME280;8936;49.010;12.120;2022-08-19T02:10:24;97269.69;;;27.39;100.00
17635;BME280;8936;49.010;12.120;2022-08-19T02:12:51;97263.06;;;27.50;100.00
17635;BME280;8936;49.010;12.120;2022-08-19T02:15:19;97259.56;;;27.67;100.00
17635;BME280;8936;49.010;12.120;2022-08-19T02:17:46;97254.88;;;27.78;100.00
17635;BME280;8936;49.010;12.120;2022-08-19T02:20:12;97258.00;;;27.66;100.00
17635;BME280;8936;49.010;12.120;2022-08-19T02:22:39;97254.88;;;27.78;100.00
17635;BME280;8936;49.010;12.120;2022-08-19T02:25:07;97254.88;;;27.78;100.00
17635;BME280;8936;49.010;12.120;2022-08-19T02:27:34;97262.31;;;27.88;100.00
17635;BME280;8936;49.010;12.120;2022-08-19T02:30:00;97250.16;;;27.97;100.00
17635;BME280;8936;49.010;12.120;2022-08-19T02:32:28;97252.13;;;27.89;100.00
17635;BME280;8936;49.010;12.120;2022-08-19T02:34:55;97258.00;;;27.87;100.00
17635;BME280;8936;49.010;12.120;2022-08-19T02:37:21;97250.56;;;27.95;100.00
17635;BME280;8936;49.010;12.120;2022-08-19T02:40:06;97239.19;;;27.97;100.00
17635;BME280;8936;49.010;12.120;2022-08-19T02:42:32;97235.28;;;27.91;100.00
17635;BME280;8936;49.010;12.120;2022-08-19T02:44:59;97245.47;;;27.86;100.00
17635;BME280;8936;49.010;12.120;2022-08-19T02:47:25;97251.34;;;27.92;100.00
17635;BME280;8936;49.010;12.120;2022-08-19T02:49:53;97254.09;;;27.85;100.00
17635;BME280;8936;49.010;12.120;2022-08-19T02:52:19;97236.06;;;27.87;100.00
17635;BME280;8936;49.010;12.120;2022-08-19T02:54:48;97225.47;;;27.97;100.00
17635;BME280;8936;49.010;12.120;2022-08-19T02:57:14;97229.78;;;27.87;100.00
17635;BME280;8936;49.010;12.120;2022-08-19T02:59:41;97219.19;;;27.96;100.00
17635;BME280;8936;49.010;12.120;2022-08-19T03:02:07;97230.59;;;27.91;100.00
17635;BME280;8936;49.010;12.120;2022-08-19T03:04:33;97232.91;;;27.89;100.00
17635;BME280;8936;49.010;12.120;2022-08-19T03:07:01;97229.00;;;27.79;100.00
17635;BME280;8936;49.010;12.120;2022-08-19T03:09:27;97226.25;;;27.79;100.00
17635;BME280;8936;49.010;12.120;2022-08-19T03:11:55;97226.25;;;27.86;100.00
17635;BME280;8936;49.010;12.120;2022-08-19T03:14:21;97235.28;;;27.87;100.00
17635;BME280;8936;49.010;12.120;2022-08-19T03:16:49;97246.25;;;27.83;100.00
17635;BME280;8936;49.010;12.120;2022-08-19T03:19:17;97238.41;;;27.85;100.00
17635;BME280;8936;49.010;12.120;2022-08-19T03:21:43;97242.31;;;27.77;100.00
17635;BME280;8936;49.010;12.120;2022-08-19T03:24:12;97238.41;;;27.85;100.00
17635;BME280;8936;49.010;12.120;2022-08-19T03:26:40;97248.59;;;27.81;100.00
17635;BME280;8936;49.010;12.120;2022-08-19T03:29:07;97260.34;;;27.85;100.00
17635;BME280;8936;49.010;12.120;2022-08-19T03:31:36;97270.53;;;27.67;100.00
17635;BME280;8936;49.010;12.120;2022-08-19T03:34:02;97293.28;;;27.71;100.00
17635;BME280;8936;49.010;12.120;2022-08-19T03:36:29;97290.50;;;27.57;100.00
17635;BME280;8936;49.010;12.120;2022-08-19T03:38:57;97293.25;;;27.64;100.00
17635;BME280;8936;49.010;12.120;2022-08-19T03:41:26;97288.94;;;27.70;100.00
17635;BME280;8936;49.010;12.120;2022-08-19T03:43:53;97276.00;;;27.64;100.00
17635;BME280;8936;49.010;12.120;2022-08-19T03:46:20;97276.00;;;27.64;100.00
17635;BME280;8936;49.010;12.120;2022-08-19T03:48:47;97263.47;;;27.73;100.00
17635;BME280;8936;49.010;12.120;2022-08-19T03:51:15;97268.59;;;27.75;100.00
17635;BME280;8936;49.010;12.120;2022-08-19T03:53:42;97272.09;;;27.82;100.00
17635;BME280;8936;49.010;12.120;2022-08-19T03:56:08;97270.56;;;27.81;100.00
17635;BME280;8936;49.010;12.120;2022-08-19T03:58:37;97263.09;;;27.78;100.00
17635;BME280;8936;49.010;12.120;2022-08-19T04:01:06;97267.41;;;27.83;100.00
17635;BME280;8936;49.010;12.120;2022-08-19T04:03:33;97281.53;;;27.74;100.00
17635;BME280;8936;49.010;12.120;2022-08-19T04:06:08;97288.97;;;27.63;100.00
17635;BME280;8936;49.010;12.120;2022-08-19T04:08:36;97294.84;;;27.69;100.00
17635;BME280;8936;49.010;12.120;2022-08-19T04:11:05;97294.84;;;27.69;100.00
17635;BME280;8936;49.010;12.120;2022-08-19T04:13:32;97305.81;;;27.72;100.00
17635;BME280;8936;49.010;12.120;2022-08-19T04:16:00;97308.16;;;27.70;100.00
17635;BME280;8936;49.010;12.120;2022-08-19T04:18:26;97314.03;;;27.69;100.00
17635;BME280;8936;49.010;12.120;2022-08-19T04:20:54;97307.00;;;27.78;100.00
17635;BME280;8936;49.010;12.120;2022-08-19T04:23:21;97310.47;;;27.51;100.00
17635;BME280;8936;49.010;12.120;2022-08-19T04:25:48;97316.25;;;27.28;100.00
17635;BME280;8936;49.010;12.120;2022-08-19T04:28:14;97325.22;;;27.21;100.00
17635;BME280;8936;49.010;12.120;2022-08-19T04:30:41;97332.69;;;27.24;100.00
17635;BME280;8936;49.010;12.120;2022-08-19T04:33:09;97341.34;;;27.37;100.00
17635;BME280;8936;49.010;12.120;2022-08-19T04:35:37;97339.88;;;27.54;100.00
17635;BME280;8936;49.010;12.120;2022-08-19T04:38:04;97337.16;;;27.57;100.00
17635;BME280;8936;49.010;12.120;2022-08-19T04:40:30;97333.94;;;27.41;100.00
17635;BME280;8936;49.010;12.120;2022-08-19T04:43:14;97329.50;;;27.15;100.00
17635;BME280;8936;49.010;12.120;2022-08-19T04:45:41;97309.72;;;26.78;100.00
17635;BME280;8936;49.010;12.120;2022-08-19T04:48:07;97314.28;;;26.56;100.00
17635;BME280;8936;49.010;12.120;2022-08-19T04:50:36;97315.78;;;26.47;100.00
17635;BME280;8936;49.010;12.120;2022-08-19T04:53:02;97330.06;;;26.73;100.00
17635;BME280;8936;49.010;12.120;2022-08-19T04:55:30;97341.03;;;26.73;100.00
17635;BME280;8936;49.010;12.120;2022-08-19T04:57:56;97343.63;;;26.56;100.00
17635;BME280;8936;49.010;12.120;2022-08-19T05:00:23;97348.75;;;26.61;100.00
17635;BME280;8936;49.010;12.120;2022-08-19T05:02:49;97334.81;;;26.83;100.00
17635;BME280;8936;49.010;12.120;2022-08-19T05:05:16;97333.88;;;26.62;100.00
17635;BME280;8936;49.010;12.120;2022-08-19T05:07:44;97338.94;;;26.56;100.00
17635;BME280;8936;49.010;12.120;2022-08-19T05:10:10;97346.13;;;26.24;100.00
17635;BME280;8936;49.010;12.120;2022-08-19T05:12:37;97339.88;;;26.23;100.00
17635;BME280;8936;49.010;12.120;2022-08-19T05:15:04;97349.06;;;26.49;100.00
17635;BME280;8936;49.010;12.120;2022-08-19T05:17:33;97354.44;;;26.38;100.00
17635;BME280;8936;49.010;12.120;2022-08-19T05:19:59;97354.00;;;26.29;100.00
17635;BME280;8936;49.010;12.120;2022-08-19T05:22:45;97363.59;;;26.12;100.00
17635;BME280;8936;49.010;12.120;2022-08-19T05:25:12;97371.63;;;26.35;100.00
17635;BME280;8936;49.010;12.120;2022-08-19T05:27:39;97365.41;;;26.38;100.00
17635;BME280;8936;49.010;12.120;2022-08-19T05:30:06;97374.44;;;26.42;100.00
17635;BME280;8936;49.010;12.120;2022-08-19T05:32:33;97383.44;;;26.46;100.00
17635;BME280;8936;49.010;12.120;2022-08-19T05:35:00;97374.81;;;26.41;100.00
17635;BME280;8936;49.010;12.120;2022-08-19T05:37:26;97374.38;;;25.95;100.00
17635;BME280;8936;49.010;12.120;2022-08-19T05:39:54;97366.59;;;26.00;100.00
17635;BME280;8936;49.010;12.120;2022-08-19T05:42:21;97366.44;;;25.83;100.00
17635;BME280;8936;49.010;12.120;2022-08-19T05:44:48;97369.53;;;26.18;100.00
17635;BME280;8936;49.010;12.120;2022-08-19T05:47:15;97380.25;;;25.97;100.00
17635;BME280;8936;49.010;12.120;2022-08-19T05:49:43;97377.78;;;25.85;100.00
17635;BME280;8936;49.010;12.120;2022-08-19T05:52:11;97374.19;;;25.47;100.00
17635;BME280;8936;49.010;12.120;2022-08-19T05:54:38;97370.06;;;25.57;100.00
17635;BME280;8936;49.010;12.120;2022-08-19T05:57:08;97373.38;;;25.73;100.00
17635;BME280;8936;49.010;12.120;2022-08-19T05:59:34;97366.19;;;25.98;100.00
17635;BME280;8936;49.010;12.120;2022-08-19T06:02:01;97363.63;;;25.75;100.00
17635;BME280;8936;49.010;12.120;2022-08-19T06:04:28;97356.09;;;25.65;100.00
17635;BME280;8936;49.010;12.120;2022-08-19T06:06:54;97366.69;;;25.70;100.00
17635;BME280;8936;49.010;12.120;2022-08-19T06:09:22;97356.59;;;25.45;100.00
17635;BME280;8936;49.010;12.120;2022-08-19T06:11:49;97356.03;;;24.99;100.00
17635;BME280;8936;49.010;12.120;2022-08-19T06:14:21;97358.09;;;25.39;100.00
17635;BME280;8936;49.010;12.120;2022-08-19T06:16:48;97352.00;;;25.49;100.00
17635;BME280;8936;49.010;12.120;2022-08-19T06:19:16;97351.88;;;25.75;100.00
17635;BME280;8936;49.010;12.120;2022-08-19T06:21:43;97344.75;;;25.63;100.00
17635;BME280;8936;49.010;12.120;2022-08-19T06:24:11;97353.47;;;25.43;100.00
17635;BME280;8936;49.010;12.120;2022-08-19T06:26:39;97342.25;;;25.51;100.00
17635;BME280;8936;49.010;12.120;2022-08-19T06:29:06;97343.59;;;25.64;100.00
17635;BME280;8936;49.010;12.120;2022-08-19T06:31:35;97350.94;;;25.60;100.00
17635;BME280;8936;49.010;12.120;2022-08-19T06:34:02;97348.97;;;25.57;100.00
17635;BME280;8936;49.010;12.120;2022-08-19T06:36:29;97356.34;;;25.90;100.00
17635;BME280;8936;49.010;12.120;2022-08-19T06:38:56;97357.59;;;25.96;100.00
17635;BME280;8936;49.010;12.120;2022-08-19T06:41:22;97381.34;;;25.22;100.00
17635;BME280;8936;49.010;12.120;2022-08-19T06:43:49;97382.44;;;24.88;100.00
17635;BME280;8936;49.010;12.120;2022-08-19T06:46:16;97383.53;;;25.13;100.00
17635;BME280;8936;49.010;12.120;2022-08-19T06:48:44;97382.66;;;25.65;100.00
17635;BME280;8936;49.010;12.120;2022-08-19T06:51:11;97384.31;;;25.13;100.00
17635;BME280;8936;49.010;12.120;2022-08-19T06:53:40;97397.03;;;24.76;100.00
17635;BME280;8936;49.010;12.120;2022-08-19T06:56:12;97393.44;;;24.95;100.00
17635;BME280;8936;49.010;12.120;2022-08-19T06:58:38;97384.78;;;24.89;100.00
17635;BME280;8936;49.010;12.120;2022-08-19T07:01:05;97394.22;;;24.95;100.00
17635;BME280;8936;49.010;12.120;2022-08-19T07:03:32;97395.50;;;25.31;100.00
17635;BME280;8936;49.010;12.120;2022-08-19T07:06:03;97386.19;;;25.65;100.00
17635;BME280;8936;49.010;12.120;2022-08-19T07:08:30;97385.97;;;25.18;100.00
17635;BME280;8936;49.010;12.120;2022-08-19T07:10:57;97380.78;;;24.57;100.00
17635;BME280;8936;49.010;12.120;2022-08-19T07:13:23;97367.50;;;24.82;100.00
17635;BME280;8936;49.010;12.120;2022-08-19T07:15:49;97359.78;;;24.87;100.00
17635;BME280;8936;49.010;12.120;2022-08-19T07:18:16;97353.84;;;25.11;100.00
17635;BME280;8936;49.010;12.120;2022-08-19T07:20:43;97366.56;;;24.97;100.00
17635;BME280;8936;49.010;12.120;2022-08-19T07:23:10;97370.31;;;25.48;100.00
17635;BME280;8936;49.010;12.120;2022-08-19T07:25:37;97371.16;;;25.86;100.00
17635;BME280;8936;49.010;12.120;2022-08-19T07:28:03;97375.88;;;25.89;100.00
17635;BME280;8936;49.010;12.120;2022-08-19T07:30:35;97377.69;;;26.14;100.00
17635;BME280;8936;49.010;12.120;2022-08-19T07:33:02;97377.50;;;26.37;100.00
17635;BME280;8936;49.010;12.120;2022-08-19T07:35:28;97370.16;;;26.45;100.00
17635;BME280;8936;49.010;12.120;2022-08-19T07:37:57;97377.31;;;26.60;100.00
17635;BME280;8936;49.010;12.120;2022-08-19T07:40:25;97380.50;;;26.69;100.00
17635;BME280;8936;49.010;12.120;2022-08-19T07:42:52;97379.00;;;26.78;100.00
17635;BME280;8936;49.010;12.120;2022-08-19T07:45:18;97382.53;;;26.79;100.00
17635;BME280;8936;49.010;12.120;2022-08-19T07:47:44;97381.59;;;26.57;100.00
17635;BME280;8936;49.010;12.120;2022-08-19T07:50:11;97392.25;;;26.69;100.00
17635;BME280;8936;49.010;12.120;2022-08-19T07:52:37;97382.09;;;26.70;100.00
17635;BME280;8936;49.010;12.120;2022-08-19T07:55:05;97382.34;;;26.54;100.00
17635;BME280;8936;49.010;12.120;2022-08-19T07:57:33;97390.34;;;26.26;100.00
17635;BME280;8936;49.010;12.120;2022-08-19T07:59:59;97393.16;;;25.96;100.00
17635;BME280;8936;49.010;12.120;2022-08-19T08:02:25;97386.06;;;25.92;100.00
17635;BME280;8936;49.010;12.120;2022-08-19T08:04:52;97388.97;;;25.72;100.00
17635;BME280;8936;49.010;12.120;2022-08-19T08:07:36;97386.88;;;25.59;100.00
17635;BME280;8936;49.010;12.120;2022-08-19T08:10:20;97380.09;;;25.83;100.00
17635;BME280;8936;49.010;12.120;2022-08-19T08:12:47;97374.38;;;25.95;100.00
17635;BME280;8936;49.010;12.120;2022-08-19T08:15:14;97379.13;;;26.01;100.00
17635;BME280;8936;49.010;12.120;2022-08-19T08:17:43;97368.81;;;25.84;100.00
17635;BME280;8936;49.010;12.120;2022-08-19T08:20:10;97364.44;;;25.46;100.00
17635;BME280;8936;49.010;12.120;2022-08-19T08:22:37;97375.34;;;25.13;100.00
17635;BME280;8936;49.010;12.120;2022-08-19T08:25:21;97367.50;;;25.41;100.00
17635;BME280;8936;49.010;12.120;2022-08-19T08:27:49;97369.38;;;25.67;100.00
17635;BME280;8936;49.010;12.120;2022-08-19T08:30:18;97360.16;;;25.82;100.00
17635;BME280;8936;49.010;12.120;2022-08-19T08:32:45;97361.56;;;25.65;100.00
17635;BME280;8936;49.010;12.120;2022-08-19T08:35:13;97360.22;;;25.86;100.00
17635;BME280;8936;49.010;12.120;2022-08-19T08:37:40;97339.03;;;25.79;100.00
17635;BME280;8936;49.010;12.120;2022-08-19T08:40:09;97344.34;;;25.61;100.00
17635;BME280;8936;49.010;12.120;2022-08-19T08:42:40;97341.59;;;25.28;100.00
17635;BME280;8936;49.010;12.120;2022-08-19T08:45:14;97356.78;;;24.96;100.00
17635;BME280;8936;49.010;12.120;2022-08-19T08:47:44;97355.19;;;24.95;100.00
17635;BME280;8936;49.010;12.120;2022-08-19T08:50:13;97344.19;;;24.88;100.00
17635;BME280;8936;49.010;12.120;2022-08-19T08:52:43;97336.72;;;24.58;100.00
17635;BME280;8936;49.010;12.120;2022-08-19T08:55:12;97334.13;;;24.43;100.00
17635;BME280;8936;49.010;12.120;2022-08-19T08:57:49;97319.63;;;24.12;100.00
17635;BME280;8936;49.010;12.120;2022-08-19T09:00:21;97326.06;;;24.50;100.00
17635;BME280;8936;49.010;12.120;2022-08-19T09:02:49;97327.72;;;24.58;100.00
17635;BME280;8936;49.010;12.120;2022-08-19T09:05:15;97333.94;;;24.29;100.00
17635;BME280;8936;49.010;12.120;2022-08-19T09:07:50;97332.41;;;24.57;100.00
17635;BME280;8936;49.010;12.120;2022-08-19T09:10:21;97339.88;;;24.87;100.00
17635;BME280;8936;49.010;12.120;2022-08-19T09:12:52;97346.22;;;25.57;100.00
17635;BME280;8936;49.010;12.120;2022-08-19T09:15:24;97345.78;;;25.52;100.00
17635;BME280;8936;49.010;12.120;2022-08-19T09:17:54;97347.78;;;25.55;100.00
17635;BME280;8936;49.010;12.120;2022-08-19T09:20:21;97351.91;;;25.12;100.00
17635;BME280;8936;49.010;12.120;2022-08-19T09:22:48;97360.56;;;24.88;100.00
17635;BME280;8936;49.010;12.120;2022-08-19T09:25:17;97355.19;;;24.68;100.00
17635;BME280;8936;49.010;12.120;2022-08-19T09:27:44;97362.03;;;24.33;100.00
17635;BME280;8936;49.010;12.120;2022-08-19T09:30:12;97365.75;;;24.21;100.00
17635;BME280;8936;49.010;12.120;2022-08-19T09:32:40;97375.22;;;24.27;100.00
17635;BME280;8936;49.010;12.120;2022-08-19T09:35:08;97367.88;;;24.57;100.00
17635;BME280;8936;49.010;12.120;2022-08-19T09:37:34;97371.13;;;24.89;100.00
17635;BME280;8936;49.010;12.120;2022-08-19T09:40:00;97371.66;;;25.32;100.00
17635;BME280;8936;49.010;12.120;2022-08-19T09:42:27;97370.84;;;24.71;100.00
17635;BME280;8936;49.010;12.120;2022-08-19T09:44:53;97373.88;;;24.66;100.00
17635;BME280;8936;49.010;12.120;2022-08-19T09:47:20;97374.59;;;24.86;100.00
17635;BME280;8936;49.010;12.120;2022-08-19T09:49:47;97385.25;;;24.95;100.00
17635;BME280;8936;49.010;12.120;2022-08-19T09:52:15;97379.66;;;25.14;100.00
17635;BME280;8936;49.010;12.120;2022-08-19T09:54:42;97382.03;;;24.89;100.00
17635;BME280;8936;49.010;12.120;2022-08-19T09:57:09;97390.34;;;24.96;100.00
17635;BME280;8936;49.010;12.120;2022-08-19T09:59:35;97388.81;;;24.99;100.00
17635;BME280;8936;49.010;12.120;2022-08-19T10:02:02;97399.28;;;24.93;100.00
17635;BME280;8936;49.010;12.120;2022-08-19T10:04:28;97389.16;;;24.94;100.00
17635;BME280;8936;49.010;12.120;2022-08-19T10:07:10;97389.41;;;25.45;100.00
17635;BME280;8936;49.010;12.120;2022-08-19T10:09:37;97398.81;;;25.47;100.00
17635;BME280;8936;49.010;12.120;2022-08-19T10:12:05;97402.25;;;25.70;100.00
17635;BME280;8936;49.010;12.120;2022-08-19T10:14:31;97401.66;;;25.24;100.00
17635;BME280;8936;49.010;12.120;2022-08-19T10:16:57;97400.22;;;25.34;100.00
17635;BME280;8936;49.010;12.120;2022-08-19T10:19:25;97397.25;;;25.46;100.00
17635;BME280;8936;49.010;12.120;2022-08-19T10:21:55;97393.31;;;25.44;100.00
17635;BME280;8936;49.010;12.120;2022-08-19T10:24:22;97386.09;;;25.29;100.00
17635;BME280;8936;49.010;12.120;2022-08-19T10:26:52;97383.19;;;24.88;100.00
17635;BME280;8936;49.010;12.120;2022-08-19T10:29:18;97382.84;;;24.90;100.00
17635;BME280;8936;49.010;12.120;2022-08-19T10:31:45;97375.16;;;24.99;100.00
17635;BME280;8936;49.010;12.120;2022-08-19T10:34:12;97374.75;;;24.97;100.00
17635;BME280;8936;49.010;12.120;2022-08-19T10:36:38;97367.56;;;25.15;100.00
17635;BME280;8936;49.010;12.120;2022-08-19T10:39:06;97374.66;;;25.19;100.00
17635;BME280;8936;49.010;12.120;2022-08-19T10:41:35;97380.22;;;24.97;100.00
17635;BME280;8936;49.010;12.120;2022-08-19T10:44:03;97377.53;;;25.00;100.00
17635;BME280;8936;49.010;12.120;2022-08-19T10:46:30;97374.41;;;25.02;100.00
17635;BME280;8936;49.010;12.120;2022-08-19T10:48:57;97366.22;;;25.02;100.00
17635;BME280;8936;49.010;12.120;2022-08-19T10:51:24;97366.03;;;24.88;100.00
17635;BME280;8936;49.010;12.120;2022-08-19T10:54:08;97360.38;;;24.77;100.00
17635;BME280;8936;49.010;12.120;2022-08-19T10:56:36;97372.84;;;25.01;100.00
17635;BME280;8936;49.010;12.120;2022-08-19T10:59:17;97370.63;;;25.40;100.00
17635;BME280;8936;49.010;12.120;2022-08-19T11:01:45;97376.09;;;25.40;100.00
17635;BME280;8936;49.010;12.120;2022-08-19T11:04:12;97364.41;;;25.43;100.00
17635;BME280;8936;49.010;12.120;2022-08-19T11:06:39;97373.25;;;25.33;100.00
17635;BME280;8936;49.010;12.120;2022-08-19T11:09:05;97365.75;;;25.26;100.00
17635;BME280;8936;49.010;12.120;2022-08-19T11:11:32;97362.28;;;25.29;100.00
17635;BME280;8936;49.010;12.120;2022-08-19T11:14:01;97360.72;;;24.98;100.00
17635;BME280;8936;49.010;12.120;2022-08-19T11:16:28;97360.03;;;25.38;100.00
17635;BME280;8936;49.010;12.120;2022-08-19T11:18:57;97363.44;;;24.98;100.00
17635;BME280;8936;49.010;12.120;2022-08-19T11:21:24;97366.00;;;25.14;100.00
17635;BME280;8936;49.010;12.120;2022-08-19T11:23:52;97363.59;;;24.83;100.00
17635;BME280;8936;49.010;12.120;2022-08-19T11:26:20;97362.53;;;24.64;100.00
17635;BME280;8936;49.010;12.120;2022-08-19T11:28:47;97357.41;;;24.86;100.00
17635;BME280;8936;49.010;12.120;2022-08-19T11:31:15;97365.84;;;24.77;100.00
17635;BME280;8936;49.010;12.120;2022-08-19T11:33:42;97360.56;;;24.88;100.00
17635;BME280;8936;49.010;12.120;2022-08-19T11:36:09;97364.41;;;24.83;100.00
17635;BME280;8936;49.010;12.120;2022-08-19T11:38:36;97372.34;;;25.21;100.00
17635;BME280;8936;49.010;12.120;2022-08-19T11:41:03;97373.75;;;25.42;100.00
17635;BME280;8936;49.010;12.120;2022-08-19T11:43:30;97374.66;;;25.49;100.00
17635;BME280;8936;49.010;12.120;2022-08-19T11:45:56;97375.63;;;25.34;100.00
17635;BME280;8936;49.010;12.120;2022-08-19T11:48:24;97373.88;;;25.49;100.00
17635;BME280;8936;49.010;12.120;2022-08-19T11:50:51;97367.78;;;25.62;100.00
17635;BME280;8936;49.010;12.120;2022-08-19T11:53:20;97355.34;;;25.68;100.00
17635;BME280;8936;49.010;12.120;2022-08-19T11:55:47;97364.09;;;25.85;100.00
17635;BME280;8936;49.010;12.120;2022-08-19T11:58:14;97356.81;;;25.59;100.00
17635;BME280;8936;49.010;12.120;2022-08-19T12:00:41;97356.84;;;25.62;100.00
17635;BME280;8936;49.010;12.120;2022-08-19T12:03:10;97356.09;;;25.65;100.00
17635;BME280;8936;49.010;12.120;2022-08-19T12:05:38;97356.50;;;25.34;100.00
17635;BME280;8936;49.010;12.120;2022-08-19T12:08:05;97355.66;;;25.30;100.00
17635;BME280;8936;49.010;12.120;2022-08-19T12:10:32;97354.41;;;25.24;100.00
17635;BME280;8936;49.010;12.120;2022-08-19T12:12:58;97355.16;;;24.91;100.00
17635;BME280;8936;49.010;12.120;2022-08-19T12:15:25;97349.84;;;24.49;100.00
17635;BME280;8936;49.010;12.120;2022-08-19T12:17:52;97350.69;;;24.53;100.00
17635;BME280;8936;49.010;12.120;2022-08-19T12:20:21;97349.63;;;24.61;100.00
17635;BME280;8936;49.010;12.120;2022-08-19T12:22:49;97355.03;;;24.58;100.00
17635;BME280;8936;49.010;12.120;2022-08-19T12:25:16;97351.72;;;24.98;100.00
17635;BME280;8936;49.010;12.120;2022-08-19T12:27:43;97349.34;;;25.26;100.00
17635;BME280;8936;49.010;12.120;2022-08-19T12:30:10;97353.13;;;25.14;100.00
17635;BME280;8936;49.010;12.120;2022-08-19T12:32:37;97351.91;;;25.12;100.00
17635;BME280;8936;49.010;12.120;2022-08-19T12:35:04;97346.75;;;25.37;100.00
17635;BME280;8936;49.010;12.120;2022-08-19T12:37:31;97350.69;;;25.72;100.00
17635;BME280;8936;49.010;12.120;2022-08-19T12:39:59;97353.31;;;25.99;100.00
17635;BME280;8936;49.010;12.120;2022-08-19T12:42:25;97355.00;;;26.14;100.00
17635;BME280;8936;49.010;12.120;2022-08-19T12:44:52;97351.63;;;26.24;100.00
17635;BME280;8936;49.010;12.120;2022-08-19T12:47:18;97350.53;;;26.36;100.00
17635;BME280;8936;49.010;12.120;2022-08-19T12:49:45;97348.63;;;26.40;100.00
17635;BME280;8936;49.010;12.120;2022-08-19T12:52:12;97346.34;;;26.56;100.00